Disclaimer

Please do not use the information listed here in-flight or in-navigation, as they are not provided to us by the airports but are provided by volunteers, so they might be outdated.

Search


Regions


Airport information page

Radio informations:
Tower (TWR) - 119.6 MHz

Airport informations:
Latitude: 42° 04' 04.10" N
Longitude: 024° 51' 03.00" E
Elevation: 597 feet - 182 meters
Operating hours: 24 hour operations
Operating agency: Civil government, landing fees and diplomatic clearance may be required
Timezone: UTC+2(+3DT) - Last Sunday in March to last Sunday in October
Fuel: N/A

Runway information:
12/30 - 8202 x 148 feet< - >2500 x 45 meters

Recent METARs:
LBPD 172100Z AUTO 31003KT 9999 OVC024/// 04/01 Q1029
LBPD 172130Z AUTO 26004KT 9999 -RA OVC024/// 03/02 Q1029
LBPD 172200Z AUTO 27003KT 9999 -RA SCT021/// OVC028/// 03/02 Q1029

Airport on the map: